Saturday, April 21, 2018, 8:43 PM EDT
Back to Local

K40B, Clayton Lake

Location: Ashland, ME, United States Lat: 46.617
Local Time: 8:43 PM EDT ( 0:43 GMT) Lon: -69.533
Time Zone: US/Eastern Elev: 1030 ft

Show me the last for .
Show Decoded

2018-04-21 20:16 METAR K40B 220016Z AUTO VRB02KT 02/M07 A3017 RMK AO1 SLP228 T00191066 10083
                 20018 53015 =
2018-04-21 19:16 METAR K40B 212316Z AUTO VRB03G12KT 05/M08 A3014 RMK AO1 SLP221 T00501085 52010 =
2018-04-21 18:16 METAR K40B 212216Z AUTO VRB04KT 06/M08 A3013 RMK AO1 SLP215 T00571083 52005 =
2018-04-21 17:16 METAR K40B 212116Z AUTO 30006G18KT 200V020 06/M08 A3012 RMK AO1 SLP214 T00621083
                 55001 =
2018-04-21 16:16 METAR K40B 212016Z AUTO VRB04G13KT 07/M08 A3011 RMK AO1 SLP213 T00681085 57004 =
2018-04-21 15:16 METAR K40B 211916Z AUTO 29006G14KT 220V070 07/M09 A3011 RMK AO1 SLP213 T00681089
                 57005 =
2018-04-21 14:16 METAR K40B 211816Z AUTO VRB06G15KT 07/M08 A3012 RMK AO1 SLP218 T00651085 10071
                 20023 56004 =
2018-04-21 13:16 METAR K40B 211716Z AUTO VRB06G16KT 06/M08 A3012 RMK AO1 SLP219 T00641083 57006 =
2018-04-21 12:16 METAR K40B 211616Z AUTO VRB05G15KT 06/M10 A3012 RMK AO1 SLP220 T00581096 57007 =
2018-04-21 11:16 METAR K40B 211516Z AUTO VRB06G16KT 05/M09 A3014 RMK AO1 SLP225 T00531086 57005 =
2018-04-21 10:18 METAR K40B 211418Z AUTO VRB05G16KT 04/M07 A3014 RMK AO1 SLP226 T00431074 58002 =
2018-04-21 09:16 METAR K40B 211316Z AUTO VRB05G14KT 04/M07 A3014 RMK AO1 SLP228 T00351069 50003 =
2018-04-21 08:16 METAR K40B 211216Z AUTO 32006G13KT 260V360 02/M05 A3015 RMK AO1 SLP230 T00241053
                 10030 21019 51010 70003 =
2018-04-21 07:16 METAR K40B 211116Z AUTO VRB03KT 01/M03 A3014 RMK AO1 SLP228 T00101030 52012 =
2018-04-21 06:16 METAR K40B 211016Z AUTO 00000KT M02/M02 A3014 RMK AO1 SLP225 T10161025 52011 =
2018-04-21 05:16 METAR K40B 210916Z AUTO 00000KT M02/M03 A3012 RMK AO1 SLP217 T10161030 52007 =
2018-04-21 04:16 METAR K40B 210816Z AUTO 00000KT M02/M03 A3011 RMK AO1 SLP213 T10151029 52002 =
2018-04-21 03:16 METAR K40B 210716Z AUTO 00000KT 00/M03 A3010 RMK AO1 SLP210 T10021027 54001 =
2018-04-21 02:16 METAR K40B 210616Z AUTO 00000KT 00/M02 A3010 RMK AO1 SLP207 T10011020 10030
                 21014 54000 60000 =
2018-04-21 01:16 METAR K40B 210516Z AUTO 00000KT M01/M02 A3010 RMK AO1 SLP209 T10061022 400761007
                 52004 P0000 =
2018-04-21 00:16 METAR K40B 210416Z AUTO VRB02KT 01/M02 A3010 RMK AO1 SLP208 T00081021 52007 =
2018-04-20 23:16 METAR K40B 210316Z AUTO VRB03KT 01/M02 A3010 RMK AO1 SLP206 T00091022 51014 =
2018-04-20 22:16 METAR K40B 210216Z AUTO VRB02KT 01/M02 A3009 RMK AO1 SLP203 T00081021 51022 =
2018-04-20 21:16 METAR K40B 210116Z AUTO 00000KT 02/M02 A3008 RMK AO1 SLP200 T00201022 52027 =

Support USWX by starting your Amazon purchase here.